Time;durP1;ratioP1;P1;durP2;ratioP2;P2;SDS_P1;SDS_P2;PMS_P1;PMS_P2;Temp;Humidity;BMP_temperature;BMP_pressure;BME280_temperature;BME280_humidity;BME280_pressure;Samples;Min_cycle;Max_cycle;Signal;HPM_P1;HPM_P2
2022/05/04 00:01:19;;;;;;;;;;;9.40;95.40;;;;;;4994972;28;19979;-81
2022/05/04 00:03:48;;;;;;;;;;;9.40;95.30;;;;;;5013163;28;19925;-81
2022/05/04 00:06:14;;;;;;;;;;;9.40;95.20;;;;;;4981537;28;19928;-81
2022/05/04 00:08:44;;;;;;;;;;;9.40;95.20;;;;;;5033212;28;20008;-81
2022/05/04 00:11:28;;;;;;;;;;;9.30;95.20;;;;;;5016106;28;19924;-82
2022/05/04 00:13:54;;;;;;;;;;;9.30;95.50;;;;;;4962990;28;19925;-84
2022/05/04 00:16:29;;;;;;;;;;;9.30;95.70;;;;;;4993248;28;19925;-82
2022/05/04 00:19:02;;;;;;;;;;;9.40;96.20;;;;;;4994334;28;19928;-81
2022/05/04 00:21:47;;;;;;;;;;;9.40;96.60;;;;;;5019356;28;20008;-81
2022/05/04 00:24:32;;;;;;;;;;;9.40;96.00;;;;;;5031536;28;20026;-81
2022/05/04 00:27:04;;;;;;;;;;;9.30;96.20;;;;;;5018057;28;19925;-81
2022/05/04 00:29:35;;;;;;;;;;;9.30;96.70;;;;;;4995295;28;20371;-81
2022/05/04 00:32:14;;;;;;;;;;;9.30;96.40;;;;;;4995556;28;19924;-81
2022/05/04 00:34:49;;;;;;;;;;;9.30;96.40;;;;;;5012528;28;20063;-81
2022/05/04 00:37:54;;;;;;;;;;;9.30;96.30;;;;;;5013194;28;19924;-84
2022/05/04 00:40:32;;;;;;;;;;;9.30;96.40;;;;;;4982754;28;19925;-81
2022/05/04 00:43:26;;;;;;;;;;;9.30;96.70;;;;;;4999827;28;20400;-81
2022/05/04 00:46:32;;;;;;;;;;;9.20;96.70;;;;;;5007541;28;20003;-81
2022/05/04 00:49:13;;;;;;;;;;;9.20;96.90;;;;;;4994891;28;19921;-82
2022/05/04 00:52:08;;;;;;;;;;;9.20;97.20;;;;;;5021102;28;20461;-81
2022/05/04 00:54:37;;;;;;;;;;;9.20;97.30;;;;;;5032301;28;19932;-81
2022/05/04 00:57:11;;;;;;;;;;;9.20;97.80;;;;;;5014286;28;20014;-81
2022/05/04 00:59:59;;;;;;;;;;;9.20;97.60;;;;;;5016927;28;20381;-83
2022/05/04 01:02:28;;;;;;;;;;;9.20;98.00;;;;;;5006515;28;19921;-81
2022/05/04 01:04:58;;;;;;;;;;;9.20;97.90;;;;;;5032720;28;19921;-83
2022/05/04 01:07:40;;;;;;;;;;;9.20;99.10;;;;;;5016454;28;19932;-81
2022/05/04 01:10:41;;;;;;;;;;;9.20;99.50;;;;;;4999051;28;19921;-81
2022/05/04 01:13:28;;;;;;;;;;;9.20;99.50;;;;;;5013152;28;20012;-82
2022/05/04 01:16:12;;;;;;;;;;;9.10;99.90;;;;;;5014082;28;19956;-81
2022/05/04 01:18:58;;;;;;;;;;;9.10;99.60;;;;;;4978647;28;20471;-81
2022/05/04 01:21:54;;;;;;;;;;;9.10;99.40;;;;;;5014705;28;19925;-81
2022/05/04 01:24:51;;;;;;;;;;;9.10;99.70;;;;;;5029945;28;19936;-81
2022/05/04 01:27:52;;;;;;;;;;;9.10;99.70;;;;;;5020576;28;19932;-81
2022/05/04 01:33:46;;;;;;;;;;;9.00;99.90;;;;;;4964696;28;20450;-81
2022/05/04 01:36:21;;;;;;;;;;;9.10;99.90;;;;;;4973251;28;19957;-81
2022/05/04 01:39:03;;;;;;;;;;;9.10;99.90;;;;;;4986275;28;19976;-81
2022/05/04 01:42:29;;;;;;;;;;;9.00;99.90;;;;;;4976619;28;19925;-81
2022/05/04 01:45:11;;;;;;;;;;;9.00;99.90;;;;;;4970893;28;19936;-81
2022/05/04 01:48:05;;;;;;;;;;;9.00;99.90;;;;;;4988675;28;20078;-81
2022/05/04 01:51:01;;;;;;;;;;;9.00;99.90;;;;;;4988488;28;19926;-81
2022/05/04 01:53:34;;;;;;;;;;;8.90;99.90;;;;;;4973639;28;19921;-81
2022/05/04 01:56:14;;;;;;;;;;;8.90;99.90;;;;;;4988359;28;20391;-83
2022/05/04 01:58:40;;;;;;;;;;;8.90;99.90;;;;;;4957297;28;19977;-81
2022/05/04 02:01:14;;;;;;;;;;;8.90;99.90;;;;;;4974080;28;19921;-81
2022/05/04 02:03:49;;;;;;;;;;;8.90;99.90;;;;;;4993862;28;19931;-81
2022/05/04 02:06:35;;;;;;;;;;;8.90;99.90;;;;;;4995182;28;19940;-81
2022/05/04 02:09:17;;;;;;;;;;;8.90;99.90;;;;;;4967169;28;20473;-81
2022/05/04 02:11:47;;;;;;;;;;;8.90;99.90;;;;;;4972445;28;19933;-81
2022/05/04 02:14:47;;;;;;;;;;;8.90;99.90;;;;;;4989130;28;19961;-81
2022/05/04 02:17:41;;;;;;;;;;;8.90;99.90;;;;;;4962006;28;19921;-81
2022/05/04 02:20:19;;;;;;;;;;;8.90;99.90;;;;;;4985061;28;20454;-81
2022/05/04 02:23:33;;;;;;;;;;;8.90;99.90;;;;;;4983229;28;19954;-81
2022/05/04 02:26:25;;;;;;;;;;;8.90;99.90;;;;;;4930173;29;19923;-81
2022/05/04 02:29:17;;;;;;;;;;;8.90;99.90;;;;;;4930597;29;19933;-81
2022/05/04 02:32:02;;;;;;;;;;;8.90;99.90;;;;;;4917612;29;19997;-81
2022/05/04 02:38:01;;;;;;;;;;;8.80;99.90;;;;;;4929918;29;19927;-81
2022/05/04 02:40:45;;;;;;;;;;;8.80;99.90;;;;;;4947659;29;19960;-81
2022/05/04 02:43:30;;;;;;;;;;;8.80;99.90;;;;;;4930338;29;19922;-81
2022/05/04 02:46:35;;;;;;;;;;;8.80;99.90;;;;;;4936555;29;20686;-81
2022/05/04 02:49:10;;;;;;;;;;;8.80;99.90;;;;;;4950356;29;19927;-84
2022/05/04 02:52:19;;;;;;;;;;;8.70;99.90;;;;;;4943526;28;20272;-81
2022/05/04 02:55:03;;;;;;;;;;;8.70;99.90;;;;;;4934141;29;19926;-81
2022/05/04 02:57:47;;;;;;;;;;;8.70;99.90;;;;;;4961680;28;19921;-81
2022/05/04 03:00:46;;;;;;;;;;;8.70;99.90;;;;;;4988918;28;20035;-81
2022/05/04 03:03:34;;;;;;;;;;;8.70;99.90;;;;;;4991450;28;19935;-81
2022/05/04 03:06:55;;;;;;;;;;;8.70;99.90;;;;;;4979526;28;20008;-81
2022/05/04 03:10:14;;;;;;;;;;;8.60;99.90;;;;;;4996882;28;20302;-81
2022/05/04 03:13:35;;;;;;;;;;;8.60;99.90;;;;;;4986978;28;19922;-82
2022/05/04 03:16:21;;;;;;;;;;;8.60;99.90;;;;;;5008412;28;20374;-82
2022/05/04 03:19:31;;;;;;;;;;;8.60;99.90;;;;;;5008329;28;19933;-83
2022/05/04 03:22:35;;;;;;;;;;;8.60;99.90;;;;;;4991089;28;19987;-81
2022/05/04 03:26:01;;;;;;;;;;;8.50;99.90;;;;;;5005983;28;20013;-80
2022/05/04 03:28:52;;;;;;;;;;;8.50;99.90;;;;;;5010028;28;20076;-81
2022/05/04 03:31:48;;;;;;;;;;;8.50;99.90;;;;;;5008501;28;19932;-81
2022/05/04 03:34:51;;;;;;;;;;;8.50;99.90;;;;;;5010858;28;20353;-81
2022/05/04 03:37:50;;;;;;;;;;;8.50;99.90;;;;;;5010293;28;20008;-81
2022/05/04 03:40:30;;;;;;;;;;;8.40;99.90;;;;;;5004961;28;20322;-81
2022/05/04 03:43:29;;;;;;;;;;;8.40;99.90;;;;;;5007994;28;19921;-83
2022/05/04 03:47:13;;;;;;;;;;;8.40;99.90;;;;;;5008875;28;19974;-81
2022/05/04 03:49:58;;;;;;;;;;;8.40;99.90;;;;;;4993250;28;19925;-81
2022/05/04 03:52:42;;;;;;;;;;;8.40;99.90;;;;;;5007155;28;20008;-82
2022/05/04 03:55:33;;;;;;;;;;;8.40;99.90;;;;;;4992901;28;20363;-81
2022/05/04 03:58:12;;;;;;;;;;;8.40;99.90;;;;;;4955403;28;20753;-80
2022/05/04 04:03:44;;;;;;;;;;;8.40;99.90;;;;;;4937841;28;19926;-81
2022/05/04 04:06:22;;;;;;;;;;;8.40;99.90;;;;;;4956805;28;19926;-81
2022/05/04 04:09:03;;;;;;;;;;;8.40;99.90;;;;;;4972348;28;19922;-81
2022/05/04 04:12:00;;;;;;;;;;;8.40;99.90;;;;;;4973092;28;19946;-81
2022/05/04 04:15:02;;;;;;;;;;;8.40;99.90;;;;;;4971300;28;19926;-81
2022/05/04 04:17:57;;;;;;;;;;;8.30;99.90;;;;;;4971734;28;19918;-81
2022/05/04 04:23:29;;;;;;;;;;;8.30;99.90;;;;;;4935929;29;19923;-81
2022/05/04 04:26:29;;;;;;;;;;;8.30;99.90;;;;;;4946429;28;19922;-83
2022/05/04 04:32:41;;;;;;;;;;;8.40;99.90;;;;;;4971455;28;20425;-81
2022/05/04 04:35:23;;;;;;;;;;;8.40;99.90;;;;;;4971241;28;19925;-81
2022/05/04 04:38:08;;;;;;;;;;;8.40;99.90;;;;;;5003497;28;19976;-81
2022/05/04 04:41:18;;;;;;;;;;;8.40;99.90;;;;;;5028569;28;19956;-81
2022/05/04 04:47:15;;;;;;;;;;;8.40;99.90;;;;;;5011704;28;19921;-81
2022/05/04 04:49:51;;;;;;;;;;;8.50;99.90;;;;;;5013367;28;19932;-81
2022/05/04 04:53:03;;;;;;;;;;;8.80;99.90;;;;;;4976814;28;19929;-81
2022/05/04 04:55:50;;;;;;;;;;;8.50;99.90;;;;;;4992848;28;19928;-81
2022/05/04 04:58:25;;;;;;;;;;;8.50;99.90;;;;;;4989287;28;19945;-82
2022/05/04 05:01:05;;;;;;;;;;;8.50;99.90;;;;;;4928667;28;19999;-81
2022/05/04 05:04:20;;;;;;;;;;;8.60;99.90;;;;;;4962177;28;20280;-82
2022/05/04 05:07:17;;;;;;;;;;;8.60;99.90;;;;;;4945001;28;20387;-82
2022/05/04 05:09:58;;;;;;;;;;;8.60;99.90;;;;;;4952161;29;19967;-81
2022/05/04 05:18:58;;;;;;;;;;;8.80;99.90;;;;;;4971498;28;19965;-81
2022/05/04 05:22:08;;;;;;;;;;;8.80;99.90;;;;;;4952454;28;19917;-81
2022/05/04 05:28:40;;;;;;;;;;;8.90;99.90;;;;;;4935164;29;20388;-84
2022/05/04 05:32:02;;;;;;;;;;;8.90;99.90;;;;;;4843206;29;19928;-81
2022/05/04 05:35:20;;;;;;;;;;;8.20;99.90;;;;;;4950913;29;19945;-81
2022/05/04 05:45:33;;;;;;;;;;;9.10;99.90;;;;;;4988582;28;19922;-81
2022/05/04 05:48:21;;;;;;;;;;;9.10;99.90;;;;;;4995505;28;19932;-81
2022/05/04 05:51:07;;;;;;;;;;;9.20;99.90;;;;;;4981304;28;20004;-81
2022/05/04 05:53:47;;;;;;;;;;;9.20;99.90;;;;;;4973780;28;19925;-81
2022/05/04 05:56:51;;;;;;;;;;;9.20;99.90;;;;;;4939090;28;20020;-81
2022/05/04 06:00:26;;;;;;;;;;;9.20;99.90;;;;;;4970017;28;20390;-81
2022/05/04 06:03:22;;;;;;;;;;;9.20;99.90;;;;;;4969519;28;19922;-84
2022/05/04 06:05:59;;;;;;;;;;;9.20;99.90;;;;;;4968746;28;19926;-81
2022/05/04 06:12:12;;;;;;;;;;;9.30;99.90;;;;;;4945833;29;19926;-81
2022/05/04 06:14:57;;;;;;;;;;;9.40;99.90;;;;;;4949177;28;19929;-81
2022/05/04 06:17:50;;;;;;;;;;;9.40;99.90;;;;;;4885167;29;19923;-80
2022/05/04 06:20:50;;;;;;;;;;;9.50;99.90;;;;;;4920106;29;20500;-80
2022/05/04 06:23:36;;;;;;;;;;;9.60;99.90;;;;;;4931758;29;19930;-82
2022/05/04 06:26:27;;;;;;;;;;;9.70;99.90;;;;;;4927976;29;19927;-82
2022/05/04 06:28:54;;;;;;;;;;;9.70;99.90;;;;;;4927498;29;19927;-80
2022/05/04 06:34:10;;;;;;;;;;;10.00;99.90;;;;;;4928035;29;19984;-83
2022/05/04 06:36:46;;;;;;;;;;;9.90;99.90;;;;;;4915391;29;19930;-82
2022/05/04 06:39:21;;;;;;;;;;;10.00;99.40;;;;;;4915247;29;19958;-82
2022/05/04 06:42:00;;;;;;;;;;;9.90;99.70;;;;;;4877595;29;19927;-82
2022/05/04 06:44:37;;;;;;;;;;;9.90;98.60;;;;;;4861111;29;19976;-82
2022/05/04 06:47:29;;;;;;;;;;;9.90;99.00;;;;;;4866396;29;20550;-85
2022/05/04 06:49:54;;;;;;;;;;;9.90;98.60;;;;;;4877494;29;20018;-82
2022/05/04 06:52:31;;;;;;;;;;;9.90;98.60;;;;;;4911452;29;19927;-82
2022/05/04 06:54:58;;;;;;;;;;;10.00;97.90;;;;;;4897292;29;19946;-83
2022/05/04 06:58:01;;;;;;;;;;;10.10;97.60;;;;;;4911365;29;19931;-82
2022/05/04 07:00:40;;;;;;;;;;;10.20;97.00;;;;;;4909045;29;19923;-82
2022/05/04 07:03:06;;;;;;;;;;;10.30;96.50;;;;;;4895359;29;19923;-82
2022/05/04 07:05:46;;;;;;;;;;;10.30;97.60;;;;;;4910246;29;19963;-82
2022/05/04 07:08:23;;;;;;;;;;;10.40;97.30;;;;;;4895736;29;19927;-83
2022/05/04 07:11:19;;;;;;;;;;;10.40;96.60;;;;;;4929526;29;19927;-82
2022/05/04 07:13:45;;;;;;;;;;;10.40;96.00;;;;;;4948668;28;19932;-83
2022/05/04 07:16:11;;;;;;;;;;;10.30;96.40;;;;;;4988556;28;20294;-81
2022/05/04 07:18:45;;;;;;;;;;;10.30;96.70;;;;;;4991281;28;19928;-80
2022/05/04 07:21:11;;;;;;;;;;;10.30;96.60;;;;;;4989070;28;20308;-81
2022/05/04 07:23:51;;;;;;;;;;;10.20;96.70;;;;;;4991073;28;19996;-81
2022/05/04 07:26:17;;;;;;;;;;;10.30;96.40;;;;;;4972517;28;19925;-81
2022/05/04 07:28:42;;;;;;;;;;;10.30;96.80;;;;;;4988500;28;19979;-81
2022/05/04 07:31:08;;;;;;;;;;;10.30;96.70;;;;;;4962010;28;19925;-82
2022/05/04 07:33:33;;;;;;;;;;;10.40;96.10;;;;;;4964796;28;20673;-81
2022/05/04 07:35:59;;;;;;;;;;;10.50;96.50;;;;;;4988501;28;19929;-81
2022/05/04 07:38:29;;;;;;;;;;;10.50;96.30;;;;;;4995358;28;19922;-82
2022/05/04 07:44:11;;;;;;;;;;;10.50;95.50;;;;;;4996386;28;19924;-81
2022/05/04 07:46:38;;;;;;;;;;;10.60;96.20;;;;;;5009627;28;20434;-81
2022/05/04 07:49:20;;;;;;;;;;;10.60;95.30;;;;;;5007940;28;19921;-82
2022/05/04 07:51:48;;;;;;;;;;;10.50;95.30;;;;;;4992204;28;19952;-81
2022/05/04 07:54:32;;;;;;;;;;;10.80;95.60;;;;;;4998323;28;19967;-81
2022/05/04 07:56:58;;;;;;;;;;;10.60;94.70;;;;;;4990070;28;19961;-81
2022/05/04 07:59:24;;;;;;;;;;;10.80;94.00;;;;;;4996560;28;19925;-80
2022/05/04 08:04:34;;;;;;;;;;;10.90;93.20;;;;;;4991830;28;19929;-82
2022/05/04 08:07:00;;;;;;;;;;;11.00;93.70;;;;;;4997699;28;19937;-82
2022/05/04 08:09:26;;;;;;;;;;;11.10;94.20;;;;;;4994530;28;20290;-82
2022/05/04 08:12:13;;;;;;;;;;;11.20;94.10;;;;;;5001924;28;19917;-81
2022/05/04 08:15:11;;;;;;;;;;;11.20;94.90;;;;;;4996203;28;19957;-80
2022/05/04 08:17:53;;;;;;;;;;;11.30;94.60;;;;;;5010343;28;19925;-81
2022/05/04 08:20:31;;;;;;;;;;;11.50;94.60;;;;;;5016761;28;19971;-81
2022/05/04 08:22:57;;;;;;;;;;;11.70;93.80;;;;;;4983556;28;19925;-80
2022/05/04 08:25:41;;;;;;;;;;;11.80;92.50;;;;;;5032032;28;19960;-80
2022/05/04 08:28:27;;;;;;;;;;;11.80;93.00;;;;;;5033023;28;19932;-81
2022/05/04 08:32:00;;;;;;;;;;;11.70;92.10;;;;;;4991263;28;19922;-80
2022/05/04 08:35:01;;;;;;;;;;;11.70;91.10;;;;;;4953596;28;19981;-80
2022/05/04 08:41:37;;;;;;;;;;;11.80;88.80;;;;;;4912954;29;20046;-80
2022/05/04 08:51:24;;;;;;;;;;;12.00;90.50;;;;;;4875854;29;19924;-79
2022/05/04 08:54:29;;;;;;;;;;;12.00;88.40;;;;;;4876029;29;20022;-86
2022/05/04 08:56:57;;;;;;;;;;;12.10;89.80;;;;;;4944995;28;19925;-82
2022/05/04 08:59:44;;;;;;;;;;;12.10;87.70;;;;;;4963129;28;20379;-82
2022/05/04 09:02:22;;;;;;;;;;;12.00;88.20;;;;;;4982644;28;19921;-82
2022/05/04 09:05:24;;;;;;;;;;;12.00;89.00;;;;;;5008605;28;19978;-82
2022/05/04 09:08:10;;;;;;;;;;;12.00;88.20;;;;;;5005896;28;19936;-82
2022/05/04 09:11:06;;;;;;;;;;;12.20;89.00;;;;;;5023385;28;19922;-82
2022/05/04 09:14:28;;;;;;;;;;;12.30;88.60;;;;;;5001538;28;19928;-82
2022/05/04 09:26:16;;;;;;;;;;;12.50;82.60;;;;;;4953221;28;19922;-82
2022/05/04 09:29:20;;;;;;;;;;;12.50;81.30;;;;;;4954531;28;19926;-81
2022/05/04 09:32:13;;;;;;;;;;;12.50;84.00;;;;;;4950736;28;19922;-79
2022/05/04 09:46:47;;;;;;;;;;;12.40;82.60;;;;;;4953353;28;19965;-83
2022/05/04 09:49:13;;;;;;;;;;;12.50;81.00;;;;;;4934340;28;19926;-84
2022/05/04 09:51:40;;;;;;;;;;;12.60;82.00;;;;;;4966583;28;19932;-84
2022/05/04 09:54:17;;;;;;;;;;;12.80;80.60;;;;;;4956838;28;19928;-84
2022/05/04 09:56:46;;;;;;;;;;;13.00;81.70;;;;;;4972180;28;19937;-84
2022/05/04 09:59:16;;;;;;;;;;;13.20;81.30;;;;;;4973895;28;19926;-83
2022/05/04 10:01:43;;;;;;;;;;;13.10;81.00;;;;;;4988952;28;20018;-83
2022/05/04 10:04:09;;;;;;;;;;;13.00;79.50;;;;;;4942059;28;19922;-83
2022/05/04 10:06:35;;;;;;;;;;;12.10;79.30;;;;;;4972856;28;20294;-82
2022/05/04 10:09:02;;;;;;;;;;;12.60;79.30;;;;;;4977999;28;19928;-83
2022/05/04 10:11:30;;;;;;;;;;;12.60;79.50;;;;;;5001215;28;20421;-82
2022/05/04 10:13:58;;;;;;;;;;;12.60;79.90;;;;;;4986880;28;19928;-82
2022/05/04 10:16:24;;;;;;;;;;;12.50;79.70;;;;;;4994562;28;20359;-79
2022/05/04 10:18:51;;;;;;;;;;;12.60;81.80;;;;;;5010408;28;19925;-79
2022/05/04 10:21:25;;;;;;;;;;;12.70;79.60;;;;;;4997069;28;19928;-80
2022/05/04 10:24:14;;;;;;;;;;;12.70;79.80;;;;;;5030830;28;20378;-79
2022/05/04 10:27:34;;;;;;;;;;;12.60;78.90;;;;;;4892024;29;20469;-81
2022/05/04 10:30:34;;;;;;;;;;;12.50;78.70;;;;;;4970129;28;19921;-81
2022/05/04 10:33:18;;;;;;;;;;;12.60;80.80;;;;;;5015091;28;19921;-82
2022/05/04 10:35:52;;;;;;;;;;;12.30;82.10;;;;;;5030363;28;20457;-83
2022/05/04 10:38:19;;;;;;;;;;;13.00;84.60;;;;;;5013713;28;20011;-80
2022/05/04 10:40:47;;;;;;;;;;;13.20;82.50;;;;;;5012249;28;19947;-79
2022/05/04 10:43:13;;;;;;;;;;;13.30;78.60;;;;;;5009005;28;19931;-80
2022/05/04 10:45:40;;;;;;;;;;;13.20;79.20;;;;;;5009658;28;19972;-79
2022/05/04 10:48:12;;;;;;;;;;;13.20;78.10;;;;;;4993655;28;19921;-79
2022/05/04 10:50:47;;;;;;;;;;;13.20;80.50;;;;;;5011202;28;19921;-79
2022/05/04 10:53:19;;;;;;;;;;;13.40;82.30;;;;;;5013584;28;19925;-79
2022/05/04 10:55:53;;;;;;;;;;;13.50;78.90;;;;;;5011966;28;20317;-78
2022/05/04 10:58:31;;;;;;;;;;;13.60;80.60;;;;;;5009804;28;20290;-79
2022/05/04 11:01:05;;;;;;;;;;;13.70;80.10;;;;;;4993427;28;19932;-79
2022/05/04 11:03:33;;;;;;;;;;;13.80;78.00;;;;;;4996779;28;20290;-78
2022/05/04 11:06:01;;;;;;;;;;;13.80;75.30;;;;;;4995227;28;19928;-78
2022/05/04 11:08:33;;;;;;;;;;;13.80;80.60;;;;;;4993544;28;20337;-78
2022/05/04 11:10:58;;;;;;;;;;;14.00;84.60;;;;;;4991565;28;19925;-79
2022/05/04 11:13:25;;;;;;;;;;;14.20;79.80;;;;;;4976001;28;19995;-79
2022/05/04 11:15:52;;;;;;;;;;;14.40;81.60;;;;;;5000564;28;19925;-81
2022/05/04 11:18:23;;;;;;;;;;;14.60;80.90;;;;;;5001314;28;19921;-81
2022/05/04 11:20:50;;;;;;;;;;;14.70;77.30;;;;;;5016159;28;19975;-79
2022/05/04 11:23:22;;;;;;;;;;;14.60;75.80;;;;;;5017155;28;19928;-78
2022/05/04 11:25:51;;;;;;;;;;;14.50;75.40;;;;;;4999632;28;19932;-79
2022/05/04 11:28:22;;;;;;;;;;;14.40;75.70;;;;;;5015606;28;20015;-80
2022/05/04 11:30:48;;;;;;;;;;;14.40;74.30;;;;;;5016419;28;19931;-80
2022/05/04 11:33:14;;;;;;;;;;;14.40;75.50;;;;;;5017398;28;19924;-79
2022/05/04 11:35:43;;;;;;;;;;;14.50;77.00;;;;;;4999918;28;19932;-80
2022/05/04 11:38:15;;;;;;;;;;;14.70;73.70;;;;;;5016205;28;19932;-80
2022/05/04 11:40:48;;;;;;;;;;;14.80;73.60;;;;;;5002989;28;19925;-79
2022/05/04 11:43:22;;;;;;;;;;;14.90;75.30;;;;;;4996923;28;19972;-78
2022/05/04 11:45:49;;;;;;;;;;;15.10;72.10;;;;;;4999524;28;20582;-81
2022/05/04 11:48:15;;;;;;;;;;;15.30;73.10;;;;;;4981076;28;19936;-79
2022/05/04 11:50:44;;;;;;;;;;;15.60;74.90;;;;;;5013072;28;19925;-78
2022/05/04 11:53:10;;;;;;;;;;;15.90;75.50;;;;;;5014352;28;20350;-79
2022/05/04 11:55:36;;;;;;;;;;;16.20;70.20;;;;;;5009636;28;19971;-80
2022/05/04 11:58:06;;;;;;;;;;;16.40;67.80;;;;;;4996634;28;19932;-79
2022/05/04 12:00:32;;;;;;;;;;;16.60;72.20;;;;;;4980139;28;20367;-79
2022/05/04 12:02:58;;;;;;;;;;;16.90;71.30;;;;;;4980375;28;19921;-79
2022/05/04 12:05:24;;;;;;;;;;;17.20;70.30;;;;;;4997104;28;19925;-80
2022/05/04 12:07:49;;;;;;;;;;;17.50;71.20;;;;;;4979663;28;19922;-82
2022/05/04 12:10:15;;;;;;;;;;;17.80;66.90;;;;;;5002053;28;20358;-80
2022/05/04 12:12:40;;;;;;;;;;;18.10;68.40;;;;;;5006978;28;19921;-79
2022/05/04 12:15:08;;;;;;;;;;;18.40;71.50;;;;;;4997740;28;19927;-80
2022/05/04 12:17:36;;;;;;;;;;;18.60;70.10;;;;;;4996418;28;19927;-79
2022/05/04 12:20:03;;;;;;;;;;;18.90;71.70;;;;;;4963987;28;19921;-78
2022/05/04 12:22:29;;;;;;;;;;;19.20;71.00;;;;;;4996156;28;19921;-79
2022/05/04 12:24:55;;;;;;;;;;;19.40;69.00;;;;;;4979306;28;20413;-79
2022/05/04 12:27:20;;;;;;;;;;;19.60;69.90;;;;;;4992425;28;20403;-78
2022/05/04 12:35:14;;;;;;;;;;;20.50;71.20;;;;;;5002389;28;19925;-79
2022/05/04 12:37:40;;;;;;;;;;;20.60;66.00;;;;;;5005104;28;19922;-78
2022/05/04 12:40:06;;;;;;;;;;;20.50;67.80;;;;;;4995688;28;19984;-80
2022/05/04 12:42:31;;;;;;;;;;;20.50;69.90;;;;;;5013789;28;20264;-78
2022/05/04 12:45:03;;;;;;;;;;;20.50;73.70;;;;;;4972766;28;20375;-81
2022/05/04 12:47:29;;;;;;;;;;;20.70;68.70;;;;;;4980244;28;20011;-78
2022/05/04 12:49:54;;;;;;;;;;;20.80;63.60;;;;;;4995607;28;19925;-79
2022/05/04 12:52:20;;;;;;;;;;;20.90;72.80;;;;;;4995377;28;19921;-78
2022/05/04 12:54:46;;;;;;;;;;;20.90;63.60;;;;;;4995830;28;19921;-79
2022/05/04 12:57:11;;;;;;;;;;;20.80;70.50;;;;;;4997114;28;20159;-78
2022/05/04 12:59:38;;;;;;;;;;;20.90;68.70;;;;;;4998749;28;20473;-78
2022/05/04 13:02:03;;;;;;;;;;;21.10;66.80;;;;;;4995346;28;20319;-78
2022/05/04 13:04:29;;;;;;;;;;;21.50;69.00;;;;;;4996004;28;19922;-79
2022/05/04 13:06:55;;;;;;;;;;;21.80;60.90;;;;;;5006697;28;19921;-81
2022/05/04 13:09:20;;;;;;;;;;;22.00;63.30;;;;;;5011741;28;19921;-79
2022/05/04 13:11:46;;;;;;;;;;;22.20;58.20;;;;;;4978714;28;19925;-78
2022/05/04 13:14:12;;;;;;;;;;;22.30;62.60;;;;;;5011033;28;19925;-78
2022/05/04 13:16:37;;;;;;;;;;;22.20;69.90;;;;;;4979416;28;19971;-81
2022/05/04 13:19:05;;;;;;;;;;;22.00;59.80;;;;;;4995316;28;19983;-78
2022/05/04 13:21:31;;;;;;;;;;;21.90;58.80;;;;;;4995366;28;19991;-80
2022/05/04 13:23:56;;;;;;;;;;;22.00;57.40;;;;;;4995170;28;20356;-82
2022/05/04 13:26:22;;;;;;;;;;;22.30;56.00;;;;;;4994790;28;20021;-80
2022/05/04 13:28:47;;;;;;;;;;;22.80;56.00;;;;;;5010931;28;19988;-80
2022/05/04 13:31:13;;;;;;;;;;;23.30;56.80;;;;;;5011140;28;20016;-80
2022/05/04 13:33:39;;;;;;;;;;;23.50;56.90;;;;;;5014866;28;19928;-80
2022/05/04 13:36:05;;;;;;;;;;;23.70;55.80;;;;;;4996623;28;19921;-80
2022/05/04 13:38:31;;;;;;;;;;;23.70;56.90;;;;;;5014255;28;19928;-80
2022/05/04 13:40:57;;;;;;;;;;;23.70;56.50;;;;;;5013871;28;19979;-82
2022/05/04 13:43:23;;;;;;;;;;;23.70;53.90;;;;;;5010080;28;19922;-79
2022/05/04 13:45:49;;;;;;;;;;;23.90;54.60;;;;;;4995288;28;19925;-80
2022/05/04 13:48:14;;;;;;;;;;;24.00;52.30;;;;;;4994320;28;19929;-80
2022/05/04 13:53:24;;;;;;;;;;;24.50;49.50;;;;;;5007415;28;19933;-81
2022/05/04 13:55:51;;;;;;;;;;;24.90;54.70;;;;;;4994689;28;19928;-81
2022/05/04 13:58:23;;;;;;;;;;;25.00;45.50;;;;;;4995163;28;19921;-81
2022/05/04 14:00:51;;;;;;;;;;;24.90;47.00;;;;;;4994977;28;20359;-81
2022/05/04 14:03:17;;;;;;;;;;;24.80;43.90;;;;;;4994383;28;19972;-81
2022/05/04 14:05:43;;;;;;;;;;;24.80;45.20;;;;;;4978061;28;20278;-81
2022/05/04 14:08:09;;;;;;;;;;;25.00;43.80;;;;;;4974107;28;20359;-81
2022/05/04 14:10:35;;;;;;;;;;;25.10;47.40;;;;;;5013090;28;19921;-81
2022/05/04 14:13:01;;;;;;;;;;;25.20;46.80;;;;;;5012740;28;19921;-83
2022/05/04 14:15:27;;;;;;;;;;;25.70;48.30;;;;;;5013436;28;19929;-81
2022/05/04 14:17:53;;;;;;;;;;;26.20;43.30;;;;;;4993766;28;20019;-81
2022/05/04 14:20:19;;;;;;;;;;;26.60;47.70;;;;;;5008452;28;20355;-81
2022/05/04 14:22:45;;;;;;;;;;;26.70;46.60;;;;;;5009920;28;20004;-80
2022/05/04 14:25:11;;;;;;;;;;;26.50;44.80;;;;;;5009772;28;20410;-81
2022/05/04 14:27:37;;;;;;;;;;;26.50;45.50;;;;;;5009748;28;19921;-80
2022/05/04 14:30:03;;;;;;;;;;;26.30;44.80;;;;;;5001536;28;19957;-81
2022/05/04 14:32:28;;;;;;;;;;;26.50;45.00;;;;;;5001565;28;19925;-81
2022/05/04 14:34:54;;;;;;;;;;;26.90;45.80;;;;;;4998513;28;19940;-81
2022/05/04 14:37:20;;;;;;;;;;;27.30;43.50;;;;;;5001511;28;19925;-81
2022/05/04 14:39:45;;;;;;;;;;;27.40;42.20;;;;;;4993845;28;20355;-80
2022/05/04 14:42:11;;;;;;;;;;;27.20;43.30;;;;;;4993471;28;19932;-81
2022/05/04 14:44:36;;;;;;;;;;;26.80;41.60;;;;;;5003103;28;20055;-81
2022/05/04 14:47:02;;;;;;;;;;;26.70;40.90;;;;;;4992031;28;19921;-81
2022/05/04 14:49:28;;;;;;;;;;;26.60;40.10;;;;;;5000901;28;19921;-81
2022/05/04 14:51:54;;;;;;;;;;;26.60;39.00;;;;;;4978675;28;19948;-82
2022/05/04 14:54:20;;;;;;;;;;;26.80;40.20;;;;;;4978818;28;20375;-81
2022/05/04 14:56:45;;;;;;;;;;;26.80;38.60;;;;;;4976546;28;19921;-81
2022/05/04 14:59:11;;;;;;;;;;;26.60;41.70;;;;;;4985948;28;19921;-81
2022/05/04 15:01:37;;;;;;;;;;;26.70;41.70;;;;;;4996451;28;19925;-81
2022/05/04 15:06:52;;;;;;;;;;;27.60;40.60;;;;;;4969333;28;20031;-81
2022/05/04 15:09:21;;;;;;;;;;;27.90;37.40;;;;;;5012725;28;19936;-80
2022/05/04 15:11:47;;;;;;;;;;;28.00;39.80;;;;;;5012882;28;20357;-80
2022/05/04 15:14:12;;;;;;;;;;;28.00;38.90;;;;;;5008643;28;19956;-81
2022/05/04 15:16:39;;;;;;;;;;;27.90;38.50;;;;;;5013391;28;19921;-80
2022/05/04 15:19:07;;;;;;;;;;;27.80;36.60;;;;;;4994820;28;20301;-80
2022/05/04 15:21:33;;;;;;;;;;;27.90;38.60;;;;;;5012331;28;19964;-80
2022/05/04 15:23:59;;;;;;;;;;;28.00;39.10;;;;;;5012845;28;19972;-81
2022/05/04 15:26:24;;;;;;;;;;;27.90;38.10;;;;;;5011310;28;19929;-80
2022/05/04 15:28:50;;;;;;;;;;;27.80;38.00;;;;;;5012110;28;19921;-80
2022/05/04 15:31:16;;;;;;;;;;;27.70;36.70;;;;;;5012799;28;19983;-79
2022/05/04 15:33:41;;;;;;;;;;;27.80;36.80;;;;;;4979941;28;20369;-80
2022/05/04 15:36:07;;;;;;;;;;;28.10;38.60;;;;;;5011732;28;19975;-83
2022/05/04 15:38:32;;;;;;;;;;;28.40;38.00;;;;;;5011235;28;19924;-80
2022/05/04 15:40:58;;;;;;;;;;;28.70;38.30;;;;;;4993582;28;19921;-81
2022/05/04 15:43:24;;;;;;;;;;;28.70;38.70;;;;;;5012040;28;19983;-81
2022/05/04 15:45:50;;;;;;;;;;;28.70;36.90;;;;;;4997078;28;19980;-81
2022/05/04 15:48:16;;;;;;;;;;;28.40;37.90;;;;;;4992816;28;19921;-81
2022/05/04 15:50:43;;;;;;;;;;;27.90;38.40;;;;;;5006979;28;19975;-81
2022/05/04 15:53:08;;;;;;;;;;;27.50;36.50;;;;;;4996300;28;20383;-82
2022/05/04 15:55:34;;;;;;;;;;;26.90;37.80;;;;;;5004588;28;19971;-81
2022/05/04 15:58:00;;;;;;;;;;;26.50;38.00;;;;;;4994329;28;19927;-81
2022/05/04 16:00:25;;;;;;;;;;;26.10;38.70;;;;;;4986980;28;20008;-81
2022/05/04 16:05:35;;;;;;;;;;;25.90;38.60;;;;;;5011071;28;19921;-81
2022/05/04 16:08:01;;;;;;;;;;;26.20;38.90;;;;;;4995444;28;20004;-80
2022/05/04 16:10:26;;;;;;;;;;;26.60;38.70;;;;;;5014953;28;19937;-81
2022/05/04 16:12:52;;;;;;;;;;;26.70;37.90;;;;;;5000078;28;20024;-81
2022/05/04 16:15:18;;;;;;;;;;;26.90;39.00;;;;;;5015054;28;19931;-81
2022/05/04 16:23:12;;;;;;;;;;;27.90;37.40;;;;;;4997230;28;19925;-82
2022/05/04 16:25:38;;;;;;;;;;;27.70;37.30;;;;;;4998336;28;20432;-81
2022/05/04 16:28:03;;;;;;;;;;;26.90;37.50;;;;;;5015957;28;19921;-81
2022/05/04 16:30:29;;;;;;;;;;;26.30;37.90;;;;;;5014640;28;19921;-82
2022/05/04 16:32:55;;;;;;;;;;;26.20;38.10;;;;;;4999722;28;19921;-81
2022/05/04 16:35:21;;;;;;;;;;;26.40;37.70;;;;;;5010686;28;20290;-81
2022/05/04 16:37:46;;;;;;;;;;;26.70;38.00;;;;;;4991903;28;19929;-82
2022/05/04 16:40:13;;;;;;;;;;;26.90;38.40;;;;;;4996129;28;19925;-83
2022/05/04 16:42:40;;;;;;;;;;;27.30;38.70;;;;;;4994135;28;20105;-81
2022/05/04 16:45:07;;;;;;;;;;;27.60;37.20;;;;;;4979505;28;19933;-81
2022/05/04 16:47:32;;;;;;;;;;;27.80;37.20;;;;;;4995599;28;20565;-81
2022/05/04 16:49:58;;;;;;;;;;;27.90;36.90;;;;;;4995758;28;19925;-81
2022/05/04 16:52:24;;;;;;;;;;;27.70;37.30;;;;;;4980678;28;19929;-81
2022/05/04 16:54:49;;;;;;;;;;;27.20;37.90;;;;;;4999139;28;19928;-81
2022/05/04 16:57:15;;;;;;;;;;;26.70;37.70;;;;;;4994187;28;20374;-82
2022/05/04 16:59:41;;;;;;;;;;;26.50;38.90;;;;;;4995167;28;19921;-81